createdAt,value
2018-12-19T00:00:13.255Z,72.00
2018-12-19T00:02:39.691Z,72.10
2018-12-19T00:05:06.740Z,71.80
2018-12-19T00:07:33.209Z,72.20
2018-12-19T00:10:00.371Z,71.90
2018-12-19T00:12:26.798Z,71.60
2018-12-19T00:14:53.071Z,71.80
2018-12-19T00:17:19.356Z,71.70
2018-12-19T00:19:45.653Z,71.90
2018-12-19T00:22:18.429Z,71.50
2018-12-19T00:24:44.789Z,71.30
2018-12-19T00:27:17.621Z,71.30
2018-12-19T00:29:43.955Z,70.80
2018-12-19T00:32:10.453Z,71.00
2018-12-19T00:34:36.910Z,70.60
2018-12-19T00:37:03.331Z,70.30
2018-12-19T00:39:30.401Z,70.10
2018-12-19T00:41:56.602Z,70.10
2018-12-19T00:44:22.985Z,70.20
2018-12-19T00:46:50.216Z,69.40
2018-12-19T00:49:16.441Z,70.00
2018-12-19T00:51:42.778Z,69.80
2018-12-19T00:54:15.448Z,70.20
2018-12-19T00:56:47.986Z,69.70
2018-12-19T00:59:17.260Z,69.70
2018-12-19T01:01:43.430Z,70.70
2018-12-19T01:04:09.671Z,70.10
2018-12-19T01:06:35.935Z,70.10
2018-12-19T01:09:04.436Z,70.00
2018-12-19T01:11:37.060Z,69.40
2018-12-19T01:14:09.426Z,69.70
2018-12-19T01:16:43.898Z,69.70
2018-12-19T01:19:10.066Z,69.60
2018-12-19T01:21:36.816Z,69.10
2018-12-19T01:24:03.905Z,69.30
2018-12-19T01:26:30.412Z,69.30
2018-12-19T01:28:56.616Z,70.00
2018-12-19T01:31:22.762Z,69.30
2018-12-19T01:33:49.055Z,69.20
2018-12-19T01:36:15.287Z,69.10
2018-12-19T01:38:41.564Z,69.40
2018-12-19T01:41:07.728Z,70.00
2018-12-19T01:43:33.922Z,69.30
2018-12-19T01:46:00.232Z,69.50
2018-12-19T01:48:26.455Z,69.40
2018-12-19T01:50:52.592Z,69.70
2018-12-19T01:53:18.740Z,69.70
2018-12-19T01:55:48.100Z,69.80
2018-12-19T01:58:14.448Z,69.60
2018-12-19T02:00:40.761Z,69.40
2018-12-19T02:03:06.993Z,69.40
2018-12-19T02:05:34.040Z,69.50
2018-12-19T02:08:00.299Z,69.20
2018-12-19T02:10:27.553Z,69.30
2018-12-19T02:12:53.877Z,70.00
2018-12-19T02:15:20.164Z,69.30
2018-12-19T02:17:47.275Z,68.60
2018-12-19T02:20:13.426Z,68.60
2018-12-19T02:22:39.695Z,69.10
2018-12-19T02:25:12.060Z,68.80
2018-12-19T02:27:38.412Z,68.90
2018-12-19T02:30:04.768Z,68.30
2018-12-19T02:32:31.135Z,68.40
2018-12-19T02:34:57.468Z,68.60
2018-12-19T02:37:23.829Z,68.80
2018-12-19T02:39:49.978Z,68.50
2018-12-19T02:42:16.277Z,68.30
2018-12-19T02:44:42.721Z,68.20
2018-12-19T02:47:09.075Z,68.10
2018-12-19T02:49:35.332Z,67.90
2018-12-19T02:52:01.464Z,68.30
2018-12-19T02:54:28.444Z,68.50
2018-12-19T02:56:54.893Z,67.70
2018-12-19T02:59:21.219Z,67.70
2018-12-19T03:01:47.555Z,67.80
2018-12-19T03:04:14.638Z,68.10
2018-12-19T03:06:41.960Z,68.20
2018-12-19T03:09:08.228Z,67.80
2018-12-19T03:11:34.520Z,67.60
2018-12-19T03:14:01.720Z,67.70
2018-12-19T03:16:34.424Z,68.00
2018-12-19T03:19:00.751Z,67.10
2018-12-19T03:21:27.037Z,67.70
2018-12-19T03:23:53.378Z,67.90
2018-12-19T03:26:19.784Z,67.50
2018-12-19T03:28:47.028Z,67.80
2018-12-19T03:31:13.348Z,67.90
2018-12-19T03:33:39.698Z,67.40
2018-12-19T03:36:05.931Z,67.90
2018-12-19T03:38:32.307Z,67.30
2018-12-19T03:40:58.659Z,67.60
2018-12-19T03:43:24.811Z,67.90
2018-12-19T03:45:51.144Z,67.70
2018-12-19T03:48:23.552Z,67.90
2018-12-19T03:50:49.926Z,67.70
2018-12-19T03:53:16.187Z,67.90
2018-12-19T03:55:42.591Z,67.40
2018-12-19T03:58:08.774Z,67.70
2018-12-19T04:00:36.146Z,67.60
2018-12-19T04:03:02.494Z,67.60
2018-12-19T04:05:28.816Z,67.30
2018-12-19T04:07:55.067Z,67.80
2018-12-19T04:10:21.377Z,67.80
2018-12-19T04:12:47.552Z,67.60
2018-12-19T04:15:13.839Z,67.80
2018-12-19T04:17:40.227Z,68.00
2018-12-19T04:20:06.820Z,68.10
2018-12-19T04:22:32.985Z,68.40
2018-12-19T04:25:00.044Z,68.70
2018-12-19T04:27:26.185Z,68.90
2018-12-19T04:29:52.825Z,69.50
2018-12-19T04:32:19.171Z,69.80
2018-12-19T04:34:45.460Z,70.10
2018-12-19T04:37:11.732Z,70.50
2018-12-19T04:39:38.055Z,70.90
2018-12-19T04:42:04.365Z,71.10
2018-12-19T04:44:31.523Z,71.50
2018-12-19T04:46:59.775Z,71.50
2018-12-19T04:49:32.276Z,71.60
2018-12-19T04:51:58.435Z,72.00
2018-12-19T04:54:24.951Z,72.30
2018-12-19T04:56:52.093Z,72.60
2018-12-19T04:59:18.323Z,72.70
2018-12-19T05:01:44.476Z,72.70
2018-12-19T05:04:11.511Z,72.80
2018-12-19T05:06:37.779Z,73.00
2018-12-19T05:09:05.240Z,73.10
2018-12-19T05:11:31.766Z,73.20
2018-12-19T05:13:58.016Z,73.20
2018-12-19T05:16:24.303Z,73.40
2018-12-19T05:18:50.448Z,73.70
2018-12-19T05:21:16.779Z,73.80
2018-12-19T05:23:43.164Z,73.90
2018-12-19T05:26:09.522Z,74.10
2018-12-19T05:28:42.103Z,74.10
2018-12-19T05:31:08.299Z,74.20
2018-12-19T05:33:34.624Z,74.40
2018-12-19T05:36:00.765Z,74.50
2018-12-19T05:38:27.088Z,74.50
2018-12-19T05:40:53.443Z,74.60
2018-12-19T05:43:25.726Z,74.80
2018-12-19T05:45:58.199Z,74.80
2018-12-19T05:48:30.641Z,74.80
2018-12-19T05:50:57.259Z,74.80
2018-12-19T05:53:23.584Z,74.80
2018-12-19T05:55:49.932Z,75.10
2018-12-19T05:58:16.200Z,75.30
2018-12-19T06:00:42.487Z,75.10
2018-12-19T06:03:08.892Z,75.30
2018-12-19T06:05:41.372Z,75.30
2018-12-19T06:08:07.511Z,75.20
2018-12-19T06:10:39.992Z,75.30
2018-12-19T06:13:06.321Z,75.20
2018-12-19T06:15:32.665Z,75.30
2018-12-19T06:17:58.996Z,75.40
2018-12-19T06:20:25.424Z,75.30
2018-12-19T06:22:51.796Z,75.10
2018-12-19T06:25:18.876Z,75.20
2018-12-19T06:27:45.454Z,75.30
2018-12-19T06:30:18.640Z,75.40
2018-12-19T06:32:51.558Z,75.40
2018-12-19T06:35:17.841Z,75.60
2018-12-19T06:37:50.152Z,75.60
2018-12-19T06:40:16.419Z,75.50
2018-12-19T06:42:42.706Z,75.40
2018-12-19T06:45:09.078Z,75.60
2018-12-19T06:47:35.365Z,75.70
2018-12-19T06:50:08.759Z,76.00
2018-12-19T06:52:35.047Z,76.00
2018-12-19T06:55:02.343Z,76.10
2018-12-19T06:57:28.675Z,76.30
2018-12-19T06:59:55.091Z,76.40
2018-12-19T07:02:21.387Z,76.50
2018-12-19T07:04:48.499Z,76.70
2018-12-19T07:07:15.608Z,76.80
2018-12-19T07:09:41.963Z,76.70
2018-12-19T07:12:08.363Z,76.80
2018-12-19T07:14:36.734Z,76.80
2018-12-19T07:17:03.176Z,76.80
2018-12-19T07:19:29.496Z,77.20
2018-12-19T07:22:01.726Z,77.20
2018-12-19T07:24:28.155Z,77.60
2018-12-19T07:27:00.938Z,77.80
2018-12-19T07:29:33.717Z,77.80
2018-12-19T07:32:00.029Z,77.80
2018-12-19T07:34:26.698Z,78.00
2018-12-19T07:36:59.329Z,78.00
2018-12-19T07:39:26.487Z,78.30
2018-12-19T07:41:52.831Z,78.40
2018-12-19T07:44:26.312Z,78.60
2018-12-19T07:46:52.618Z,78.50
2018-12-19T07:49:25.195Z,78.50
2018-12-19T07:51:51.425Z,78.50
2018-12-19T07:54:17.743Z,78.60
2018-12-19T07:56:50.347Z,78.70
2018-12-19T07:59:16.891Z,79.00
2018-12-19T08:01:43.316Z,79.10
2018-12-19T08:04:09.743Z,79.50
2018-12-19T08:06:36.890Z,80.10
2018-12-19T08:09:09.280Z,80.90
2018-12-19T08:11:36.035Z,81.20
2018-12-19T08:14:02.797Z,81.10
2018-12-19T08:16:28.959Z,81.00
2018-12-19T08:18:56.081Z,81.50
2018-12-19T08:21:22.338Z,81.80
2018-12-19T08:23:48.657Z,81.90
2018-12-19T08:26:21.209Z,81.90
2018-12-19T08:28:47.869Z,82.00
2018-12-19T08:31:20.507Z,82.20
2018-12-19T08:33:52.927Z,82.50
2018-12-19T08:36:20.271Z,82.70
2018-12-19T08:38:46.544Z,82.90
2018-12-19T08:41:14.800Z,82.90
2018-12-19T08:43:47.215Z,83.70
2018-12-19T08:46:14.678Z,83.10
2018-12-19T08:48:41.252Z,83.10
2018-12-19T08:51:08.305Z,83.30
2018-12-19T08:53:36.631Z,83.20
2018-12-19T08:56:03.026Z,83.30
2018-12-19T08:58:35.672Z,83.50
2018-12-19T09:01:02.312Z,83.50
2018-12-19T09:03:35.036Z,83.50
2018-12-19T09:06:01.528Z,84.20
2018-12-19T09:08:27.986Z,83.70
2018-12-19T09:10:54.287Z,83.80
2018-12-19T09:13:21.377Z,83.80
2018-12-19T09:15:54.023Z,83.90
2018-12-19T09:18:20.307Z,83.90
2018-12-19T09:20:46.821Z,83.90
2018-12-19T09:23:19.446Z,83.80
2018-12-19T09:25:45.816Z,83.90
2018-12-19T09:28:11.997Z,84.00
2018-12-19T09:30:38.446Z,84.00
2018-12-19T09:33:04.908Z,83.90
2018-12-19T09:35:31.417Z,84.00
2018-12-19T09:37:57.843Z,84.00
2018-12-19T09:40:30.301Z,84.10
2018-12-19T09:42:56.491Z,84.10
2018-12-19T09:45:29.029Z,84.00
2018-12-19T09:47:55.494Z,84.20
2018-12-19T09:50:21.875Z,84.20
2018-12-19T09:52:48.176Z,84.20
2018-12-19T09:55:14.468Z,84.30
2018-12-19T09:57:47.121Z,84.10
2018-12-19T10:00:15.818Z,84.20
2018-12-19T10:02:42.233Z,84.30
2018-12-19T10:05:15.255Z,84.30
2018-12-19T10:07:42.623Z,84.40
2018-12-19T10:10:15.296Z,84.40
2018-12-19T10:12:42.372Z,84.30
2018-12-19T10:15:09.861Z,84.40
2018-12-19T10:17:42.202Z,84.40
2018-12-19T10:20:08.600Z,84.40
2018-12-19T10:22:36.939Z,84.50
2018-12-19T10:25:13.873Z,84.50
2018-12-19T10:27:46.297Z,84.50
2018-12-19T10:30:19.115Z,84.50
2018-12-19T10:32:47.704Z,84.50
2018-12-19T10:35:15.218Z,84.50
2018-12-19T10:37:42.313Z,84.60
2018-12-19T10:40:08.749Z,84.70
2018-12-19T10:42:35.165Z,84.50
2018-12-19T10:45:04.243Z,84.60
2018-12-19T10:47:30.519Z,84.80
2018-12-19T10:49:56.794Z,84.80
2018-12-19T10:52:23.812Z,84.80
2018-12-19T10:54:50.111Z,84.80
2018-12-19T10:57:22.864Z,84.90
2018-12-19T10:59:49.392Z,85.40
2018-12-19T11:02:16.499Z,84.80
2018-12-19T11:04:49.183Z,84.90
2018-12-19T11:07:21.794Z,84.70
2018-12-19T11:09:47.950Z,84.70
2018-12-19T11:12:14.241Z,84.70
2018-12-19T11:14:46.740Z,84.80
2018-12-19T11:17:13.624Z,84.80
2018-12-19T11:19:39.971Z,84.70
2018-12-19T11:22:12.875Z,84.70
2018-12-19T11:24:45.398Z,84.60
2018-12-19T11:27:18.084Z,84.60
2018-12-19T11:29:44.385Z,84.50
2018-12-19T11:32:10.642Z,84.50
2018-12-19T11:34:37.835Z,84.30
2018-12-19T11:37:10.592Z,84.40
2018-12-19T11:39:43.331Z,84.20
2018-12-19T11:42:09.687Z,84.40
2018-12-19T11:44:36.042Z,84.20
2018-12-19T11:47:02.317Z,84.40
2018-12-19T11:49:28.627Z,84.00
2018-12-19T11:52:01.345Z,84.20
2018-12-19T11:54:34.892Z,84.10
2018-12-19T11:57:01.652Z,83.70
2018-12-19T11:59:28.067Z,83.40
2018-12-19T12:01:54.338Z,83.40
2018-12-19T12:04:20.757Z,83.50
2018-12-19T12:06:47.170Z,83.20
2018-12-19T12:09:13.547Z,83.10
2018-12-19T12:11:46.925Z,83.20
2018-12-19T12:14:13.340Z,82.80
2018-12-19T12:16:39.782Z,82.70
2018-12-19T12:19:06.130Z,82.90
2018-12-19T12:21:32.678Z,82.70
2018-12-19T12:24:05.508Z,82.70
2018-12-19T12:26:37.975Z,82.40
2018-12-19T12:29:04.328Z,82.50
2018-12-19T12:31:30.808Z,82.30
2018-12-19T12:33:57.035Z,81.80
2018-12-19T12:36:29.411Z,81.80
2018-12-19T12:38:55.699Z,81.50
2018-12-19T12:41:26.044Z,81.70
2018-12-19T12:43:54.116Z,81.30
2018-12-19T12:46:20.513Z,81.50
2018-12-19T12:48:46.801Z,81.30
2018-12-19T12:51:19.548Z,81.20
2018-12-19T12:53:46.136Z,81.00
2018-12-19T12:56:12.924Z,81.00
2018-12-19T12:58:39.497Z,81.30
2018-12-19T13:01:13.884Z,81.30
2018-12-19T13:03:41.036Z,81.10
2018-12-19T13:06:07.774Z,80.80
2018-12-19T13:08:40.652Z,80.90
2018-12-19T13:11:07.558Z,81.00
2018-12-19T13:13:40.338Z,80.90
2018-12-19T13:16:07.209Z,81.10
2018-12-19T13:18:34.449Z,81.20
2018-12-19T13:21:01.273Z,81.30
2018-12-19T13:23:27.522Z,81.30
2018-12-19T13:25:53.810Z,81.00
2018-12-19T13:28:20.174Z,80.90
2018-12-19T13:30:48.323Z,81.00
2018-12-19T13:33:21.752Z,80.70
2018-12-19T13:35:48.566Z,81.00
2018-12-19T13:38:15.699Z,81.00
2018-12-19T13:40:42.897Z,81.00
2018-12-19T13:43:17.280Z,80.70
2018-12-19T13:45:44.055Z,80.30
2018-12-19T13:48:16.554Z,80.10
2018-12-19T13:50:43.660Z,80.10
2018-12-19T13:53:11.103Z,80.30
2018-12-19T13:55:37.864Z,80.10
2018-12-19T13:58:07.142Z,80.10
2018-12-19T14:00:38.872Z,80.30
2018-12-19T14:03:11.620Z,80.40
2018-12-19T14:05:42.136Z,80.10
2018-12-19T14:08:09.408Z,79.80
2018-12-19T14:10:35.803Z,80.00
2018-12-19T14:13:08.554Z,79.80
2018-12-19T14:15:35.171Z,80.00
2018-12-19T14:18:01.831Z,80.00
2018-12-19T14:20:34.453Z,79.90
2018-12-19T14:23:01.181Z,79.50
2018-12-19T14:25:33.901Z,79.40
2018-12-19T14:28:07.288Z,79.50
2018-12-19T14:30:34.885Z,79.50
2018-12-19T14:33:01.257Z,79.70
2018-12-19T14:35:27.739Z,79.40
2018-12-19T14:37:56.988Z,79.20
2018-12-19T14:40:24.276Z,79.40
2018-12-19T14:42:51.006Z,80.30
2018-12-19T14:45:24.241Z,79.50
2018-12-19T14:47:50.864Z,80.20
2018-12-19T14:50:19.227Z,79.20
2018-12-19T14:52:45.630Z,79.30
2018-12-19T14:55:12.597Z,79.30
2018-12-19T14:57:39.720Z,79.30
2018-12-19T15:00:09.793Z,79.20
2018-12-19T15:02:37.046Z,79.40
2018-12-19T15:05:05.171Z,79.60
2018-12-19T15:07:38.317Z,79.50
2018-12-19T15:10:07.355Z,79.50
2018-12-19T15:12:34.555Z,79.60
2018-12-19T15:18:14.156Z,79.80
2018-12-19T15:20:42.538Z,79.50
2018-12-19T15:23:09.129Z,79.30
2018-12-19T15:25:35.732Z,79.50
2018-12-19T15:28:08.891Z,79.60
2018-12-19T15:30:41.704Z,79.50
2018-12-19T15:33:08.428Z,79.50
2018-12-19T15:35:34.968Z,79.60
2018-12-19T15:38:07.774Z,79.60
2018-12-19T15:40:40.426Z,79.70
2018-12-19T15:43:12.892Z,79.60
2018-12-19T15:45:45.888Z,79.60
2018-12-19T15:48:13.220Z,79.60
2018-12-19T15:50:40.399Z,79.60
2018-12-19T15:53:07.113Z,79.70
2018-12-19T15:55:39.950Z,79.70
2018-12-19T15:58:06.459Z,79.80
2018-12-19T16:00:32.995Z,79.80
2018-12-19T16:03:05.753Z,79.90
2018-12-19T16:05:38.104Z,80.00
2018-12-19T16:08:05.220Z,80.10
2018-12-19T16:10:31.963Z,80.10
2018-12-19T16:13:04.540Z,80.20
2018-12-19T16:15:31.119Z,80.20
2018-12-19T16:18:03.954Z,80.30
2018-12-19T16:20:30.384Z,80.40
2018-12-19T16:23:03.233Z,80.60
2018-12-19T16:25:29.393Z,80.60
2018-12-19T16:27:56.528Z,80.60
2018-12-19T16:30:22.828Z,80.50
2018-12-19T16:32:55.180Z,80.70
2018-12-19T16:35:34.731Z,80.80
2018-12-19T16:38:01.740Z,80.80
2018-12-19T16:40:28.998Z,80.80
2018-12-19T16:43:02.375Z,80.80
2018-12-19T16:45:29.240Z,80.80
2018-12-19T16:47:55.403Z,80.90
2018-12-19T16:50:24.021Z,80.90
2018-12-19T16:52:50.639Z,81.00
2018-12-19T16:55:17.005Z,81.20
2018-12-19T16:57:43.599Z,81.20
2018-12-19T17:00:11.422Z,81.10
2018-12-19T17:02:43.948Z,81.10
2018-12-19T17:05:10.375Z,81.20
2018-12-19T17:07:36.792Z,81.20
2018-12-19T17:10:09.728Z,81.50
2018-12-19T17:12:36.164Z,81.60
2018-12-19T17:15:03.411Z,81.60
2018-12-19T17:17:30.119Z,81.70
2018-12-19T17:19:56.805Z,81.60
2018-12-19T17:22:27.524Z,81.60
2018-12-19T17:25:00.779Z,81.60
2018-12-19T17:27:27.381Z,81.70
2018-12-19T17:30:00.209Z,81.80
2018-12-19T17:32:28.907Z,81.80
2018-12-19T17:34:57.234Z,81.80
2018-12-19T17:37:23.760Z,81.90
2018-12-19T17:39:50.126Z,82.00
2018-12-19T17:42:16.407Z,81.80
2018-12-19T17:44:43.082Z,81.80
2018-12-19T17:47:09.351Z,81.60
2018-12-19T17:49:42.237Z,81.70
2018-12-19T17:52:09.283Z,81.90
2018-12-19T17:54:41.643Z,81.90
2018-12-19T17:57:07.943Z,81.90
2018-12-19T17:59:40.799Z,81.80
2018-12-19T18:02:07.237Z,81.70
2018-12-19T18:04:40.067Z,81.40
2018-12-19T18:07:06.430Z,81.50
2018-12-19T18:09:33.252Z,81.70
2018-12-19T18:11:59.741Z,81.70
2018-12-19T18:14:32.492Z,81.60
2018-12-19T18:16:59.428Z,81.60
2018-12-19T18:19:25.992Z,81.60
2018-12-19T18:24:55.052Z,81.90
2018-12-19T18:27:21.348Z,82.10
2018-12-19T18:29:55.666Z,82.40
2018-12-19T18:32:22.929Z,82.40
2018-12-19T18:34:49.823Z,82.60
2018-12-19T18:37:16.468Z,82.80
2018-12-19T18:39:42.902Z,82.90
2018-12-19T18:42:09.510Z,83.00
2018-12-19T18:44:42.395Z,83.20
2018-12-19T18:47:08.727Z,83.10
2018-12-19T18:49:41.533Z,83.20
2018-12-19T18:52:08.523Z,83.30
2018-12-19T18:54:35.367Z,83.20
2018-12-19T18:57:09.783Z,83.30
2018-12-19T19:02:35.978Z,83.50
2018-12-19T19:05:09.070Z,83.50
2018-12-19T19:07:35.932Z,83.60
2018-12-19T19:10:04.211Z,83.70
2018-12-19T19:12:30.671Z,83.70
2018-12-19T19:14:57.992Z,83.70
2018-12-19T19:17:24.918Z,83.70
2018-12-19T19:19:52.423Z,83.70
2018-12-19T19:22:25.238Z,83.80
2018-12-19T19:24:52.736Z,83.60
2018-12-19T19:27:19.127Z,83.60
2018-12-19T19:29:45.564Z,83.50
2018-12-19T19:32:12.162Z,83.50
2018-12-19T19:34:38.728Z,83.70
2018-12-19T19:37:05.947Z,83.60
2018-12-19T19:39:32.316Z,84.40
2018-12-19T19:42:05.595Z,83.90
2018-12-19T19:44:32.674Z,83.80
2018-12-19T19:46:59.212Z,83.80
2018-12-19T19:49:26.795Z,83.80
2018-12-19T19:51:53.642Z,83.70
2018-12-19T19:54:20.564Z,83.60
2018-12-19T19:56:47.463Z,83.70
2018-12-19T19:59:14.079Z,83.80
2018-12-19T20:01:40.712Z,83.80
2018-12-19T20:04:07.607Z,83.80
2018-12-19T20:06:40.331Z,83.90
2018-12-19T20:09:07.272Z,83.50
2018-12-19T20:11:40.229Z,84.30
2018-12-19T20:14:12.836Z,83.70
2018-12-19T20:16:45.637Z,83.70
2018-12-19T20:19:18.637Z,83.60
2018-12-19T20:21:45.771Z,83.80
2018-12-19T20:24:12.683Z,84.40
2018-12-19T20:26:39.537Z,83.60
2018-12-19T20:29:06.025Z,83.40
2018-12-19T20:31:38.614Z,83.40
2018-12-19T20:34:05.079Z,83.40
2018-12-19T20:36:38.114Z,83.40
2018-12-19T20:39:06.174Z,83.50
2018-12-19T20:41:38.802Z,83.50
2018-12-19T20:44:06.043Z,83.50
2018-12-19T20:46:32.474Z,83.40
2018-12-19T20:49:01.022Z,83.10
2018-12-19T20:51:27.875Z,83.20
2018-12-19T20:54:00.541Z,83.20
2018-12-19T20:56:28.863Z,83.10
2018-12-19T20:59:01.953Z,83.10
2018-12-19T21:01:28.609Z,83.00
2018-12-19T21:04:01.473Z,83.10
2018-12-19T21:06:32.723Z,82.90
2018-12-19T21:08:59.150Z,83.00
2018-12-19T21:11:32.642Z,83.00
2018-12-19T21:13:59.183Z,82.90
2018-12-19T21:16:32.099Z,83.00
2018-12-19T21:18:58.651Z,83.10
2018-12-19T21:21:25.970Z,83.40
2018-12-19T21:26:52.094Z,83.20
2018-12-19T21:29:19.612Z,83.40
2018-12-19T21:31:45.911Z,83.20
2018-12-19T21:34:12.225Z,83.20
2018-12-19T21:36:38.710Z,83.60
2018-12-19T21:39:07.218Z,82.90
2018-12-19T21:41:33.675Z,82.90
2018-12-19T21:44:00.115Z,82.70
2018-12-19T21:46:27.052Z,82.40
2018-12-19T21:48:53.447Z,82.60
2018-12-19T21:51:26.038Z,82.90
2018-12-19T21:53:52.679Z,83.50
2018-12-19T21:56:19.034Z,82.60
2018-12-19T21:58:46.231Z,82.50
2018-12-19T22:01:12.841Z,82.60
2018-12-19T22:03:39.107Z,82.60
2018-12-19T22:06:05.684Z,82.60
2018-12-19T22:08:38.347Z,83.20
2018-12-19T22:11:10.966Z,83.50
2018-12-19T22:13:37.569Z,83.60
2018-12-19T22:16:12.434Z,83.60
2018-12-19T22:18:46.563Z,83.60
2018-12-19T22:21:14.220Z,83.80
2018-12-19T22:23:40.704Z,83.70
2018-12-19T22:26:07.381Z,83.60
2018-12-19T22:28:40.218Z,83.30
2018-12-19T22:31:06.519Z,83.90
2018-12-19T22:33:38.991Z,82.80
2018-12-19T22:36:11.830Z,82.80
2018-12-19T22:38:38.177Z,82.60
2018-12-19T22:41:04.669Z,82.60
2018-12-19T22:43:31.813Z,82.60
2018-12-19T22:45:58.107Z,82.50
2018-12-19T22:48:24.391Z,82.40
2018-12-19T22:50:51.779Z,82.20
2018-12-19T22:53:24.324Z,82.20
2018-12-19T22:55:50.763Z,82.20
2018-12-19T22:58:17.908Z,82.20
2018-12-19T23:00:56.970Z,82.00
2018-12-19T23:03:25.619Z,82.30
2018-12-19T23:05:52.040Z,82.10
2018-12-19T23:08:18.348Z,82.30
2018-12-19T23:10:44.904Z,82.10
2018-12-19T23:13:11.399Z,82.20
2018-12-19T23:15:37.717Z,82.30
2018-12-19T23:18:10.287Z,82.30
2018-12-19T23:20:36.676Z,82.30
2018-12-19T23:23:09.215Z,82.40
2018-12-19T23:25:35.721Z,82.30
2018-12-19T23:28:02.255Z,82.10
2018-12-19T23:30:29.851Z,82.20
2018-12-19T23:32:56.299Z,82.10
2018-12-19T23:35:28.956Z,82.60
2018-12-19T23:37:55.381Z,81.70
2018-12-19T23:40:27.946Z,82.10
2018-12-19T23:42:54.317Z,82.00
2018-12-19T23:45:20.610Z,81.60
2018-12-19T23:47:46.845Z,81.60
2018-12-19T23:50:13.277Z,81.50
2018-12-19T23:52:39.834Z,81.40
2018-12-19T23:55:06.955Z,81.50
2018-12-19T23:57:33.406Z,81.50
2018-12-19T23:59:59.900Z,81.80
